sensor_id;sensor_type;location;lat;lon;timestamp;P1;durP1;ratioP1;P2;durP2;ratioP2
9117;SDS011;4594;50.994;7.126;2023-12-07T00:01:41;16.23;;;11.77;;
9117;SDS011;4594;50.994;7.126;2023-12-07T00:04:06;17.40;;;11.87;;
9117;SDS011;4594;50.994;7.126;2023-12-07T00:06:32;16.70;;;10.87;;
9117;SDS011;4594;50.994;7.126;2023-12-07T00:08:58;20.10;;;10.33;;
9117;SDS011;4594;50.994;7.126;2023-12-07T00:11:26;14.17;;;10.23;;
9117;SDS011;4594;50.994;7.126;2023-12-07T00:13:51;15.33;;;10.57;;
9117;SDS011;4594;50.994;7.126;2023-12-07T00:16:17;16.07;;;10.77;;
9117;SDS011;4594;50.994;7.126;2023-12-07T00:18:43;14.67;;;10.33;;
9117;SDS011;4594;50.994;7.126;2023-12-07T00:21:08;16.07;;;10.80;;
9117;SDS011;4594;50.994;7.126;2023-12-07T00:23:35;17.30;;;10.70;;
9117;SDS011;4594;50.994;7.126;2023-12-07T00:26:03;14.50;;;10.90;;
9117;SDS011;4594;50.994;7.126;2023-12-07T00:28:29;17.73;;;11.47;;
9117;SDS011;4594;50.994;7.126;2023-12-07T00:30:55;12.27;;;10.20;;
9117;SDS011;4594;50.994;7.126;2023-12-07T00:33:21;15.57;;;10.97;;
9117;SDS011;4594;50.994;7.126;2023-12-07T00:35:47;15.27;;;11.03;;
9117;SDS011;4594;50.994;7.126;2023-12-07T00:38:13;15.80;;;11.20;;
9117;SDS011;4594;50.994;7.126;2023-12-07T00:40:39;18.40;;;10.83;;
9117;SDS011;4594;50.994;7.126;2023-12-07T00:43:05;16.20;;;11.63;;
9117;SDS011;4594;50.994;7.126;2023-12-07T00:45:34;13.83;;;10.47;;
9117;SDS011;4594;50.994;7.126;2023-12-07T00:48:00;14.97;;;10.87;;
9117;SDS011;4594;50.994;7.126;2023-12-07T00:50:26;15.00;;;10.67;;
9117;SDS011;4594;50.994;7.126;2023-12-07T00:52:51;13.00;;;9.90;;
9117;SDS011;4594;50.994;7.126;2023-12-07T00:55:17;15.27;;;11.27;;
9117;SDS011;4594;50.994;7.126;2023-12-07T00:57:42;17.63;;;11.13;;
9117;SDS011;4594;50.994;7.126;2023-12-07T01:00:08;17.53;;;10.63;;
9117;SDS011;4594;50.994;7.126;2023-12-07T01:02:35;16.27;;;10.17;;
9117;SDS011;4594;50.994;7.126;2023-12-07T01:05:01;14.37;;;10.80;;
9117;SDS011;4594;50.994;7.126;2023-12-07T01:07:27;15.33;;;10.80;;
9117;SDS011;4594;50.994;7.126;2023-12-07T01:09:52;14.43;;;11.00;;
9117;SDS011;4594;50.994;7.126;2023-12-07T01:12:18;15.33;;;11.30;;
9117;SDS011;4594;50.994;7.126;2023-12-07T01:14:45;14.50;;;10.53;;
9117;SDS011;4594;50.994;7.126;2023-12-07T01:17:10;14.63;;;10.80;;
9117;SDS011;4594;50.994;7.126;2023-12-07T01:19:36;17.40;;;11.07;;
9117;SDS011;4594;50.994;7.126;2023-12-07T01:22:02;14.70;;;10.57;;
9117;SDS011;4594;50.994;7.126;2023-12-07T01:24:28;15.93;;;11.50;;
9117;SDS011;4594;50.994;7.126;2023-12-07T01:26:54;17.47;;;11.07;;
9117;SDS011;4594;50.994;7.126;2023-12-07T01:29:20;15.50;;;10.70;;
9117;SDS011;4594;50.994;7.126;2023-12-07T01:31:45;16.47;;;10.60;;
9117;SDS011;4594;50.994;7.126;2023-12-07T01:34:11;16.70;;;11.27;;
9117;SDS011;4594;50.994;7.126;2023-12-07T01:36:37;14.90;;;10.97;;
9117;SDS011;4594;50.994;7.126;2023-12-07T01:39:02;14.10;;;10.40;;
9117;SDS011;4594;50.994;7.126;2023-12-07T01:41:28;19.93;;;11.00;;
9117;SDS011;4594;50.994;7.126;2023-12-07T01:43:54;16.23;;;11.50;;
9117;SDS011;4594;50.994;7.126;2023-12-07T01:46:19;13.93;;;10.93;;
9117;SDS011;4594;50.994;7.126;2023-12-07T01:48:45;16.37;;;11.60;;
9117;SDS011;4594;50.994;7.126;2023-12-07T01:51:15;20.93;;;12.87;;
9117;SDS011;4594;50.994;7.126;2023-12-07T01:53:42;17.80;;;11.80;;
9117;SDS011;4594;50.994;7.126;2023-12-07T01:56:08;19.53;;;12.57;;
9117;SDS011;4594;50.994;7.126;2023-12-07T01:58:35;17.90;;;12.17;;
9117;SDS011;4594;50.994;7.126;2023-12-07T02:01:02;17.80;;;11.80;;
9117;SDS011;4594;50.994;7.126;2023-12-07T02:03:30;15.93;;;11.13;;
9117;SDS011;4594;50.994;7.126;2023-12-07T02:05:57;14.87;;;11.20;;
9117;SDS011;4594;50.994;7.126;2023-12-07T02:08:24;18.57;;;12.17;;
9117;SDS011;4594;50.994;7.126;2023-12-07T02:10:49;16.53;;;12.30;;
9117;SDS011;4594;50.994;7.126;2023-12-07T02:13:19;19.50;;;13.57;;
9117;SDS011;4594;50.994;7.126;2023-12-07T02:15:46;22.60;;;12.97;;
9117;SDS011;4594;50.994;7.126;2023-12-07T02:24:12;17.67;;;12.03;;
9117;SDS011;4594;50.994;7.126;2023-12-07T02:26:46;17.07;;;11.47;;
9117;SDS011;4594;50.994;7.126;2023-12-07T02:29:14;20.93;;;12.27;;
9117;SDS011;4594;50.994;7.126;2023-12-07T02:31:39;15.00;;;10.73;;
9117;SDS011;4594;50.994;7.126;2023-12-07T02:34:05;18.20;;;12.03;;
9117;SDS011;4594;50.994;7.126;2023-12-07T02:36:31;15.80;;;11.87;;
9117;SDS011;4594;50.994;7.126;2023-12-07T02:39:01;16.40;;;11.77;;
9117;SDS011;4594;50.994;7.126;2023-12-07T02:41:29;19.73;;;12.57;;
9117;SDS011;4594;50.994;7.126;2023-12-07T02:43:57;17.47;;;12.33;;
9117;SDS011;4594;50.994;7.126;2023-12-07T02:46:24;19.17;;;12.67;;
9117;SDS011;4594;50.994;7.126;2023-12-07T02:48:50;19.37;;;13.17;;
9117;SDS011;4594;50.994;7.126;2023-12-07T02:51:17;22.33;;;13.53;;
9117;SDS011;4594;50.994;7.126;2023-12-07T02:53:43;19.67;;;12.07;;
9117;SDS011;4594;50.994;7.126;2023-12-07T02:56:09;17.07;;;11.90;;
9117;SDS011;4594;50.994;7.126;2023-12-07T02:58:35;16.00;;;11.63;;
9117;SDS011;4594;50.994;7.126;2023-12-07T03:01:01;21.57;;;13.10;;
9117;SDS011;4594;50.994;7.126;2023-12-07T03:03:26;16.93;;;11.63;;
9117;SDS011;4594;50.994;7.126;2023-12-07T03:05:52;20.70;;;13.03;;
9117;SDS011;4594;50.994;7.126;2023-12-07T03:08:18;20.50;;;13.17;;
9117;SDS011;4594;50.994;7.126;2023-12-07T03:10:43;22.43;;;14.17;;
9117;SDS011;4594;50.994;7.126;2023-12-07T03:13:09;20.30;;;14.13;;
9117;SDS011;4594;50.994;7.126;2023-12-07T03:15:35;22.90;;;14.33;;
9117;SDS011;4594;50.994;7.126;2023-12-07T03:18:00;21.57;;;13.97;;
9117;SDS011;4594;50.994;7.126;2023-12-07T03:20:26;19.37;;;12.17;;
9117;SDS011;4594;50.994;7.126;2023-12-07T03:22:52;19.93;;;13.27;;
9117;SDS011;4594;50.994;7.126;2023-12-07T03:25:17;19.47;;;13.40;;
9117;SDS011;4594;50.994;7.126;2023-12-07T03:27:43;21.80;;;12.83;;
9117;SDS011;4594;50.994;7.126;2023-12-07T03:30:09;21.43;;;14.20;;
9117;SDS011;4594;50.994;7.126;2023-12-07T03:32:35;22.30;;;13.50;;
9117;SDS011;4594;50.994;7.126;2023-12-07T03:35:00;17.43;;;12.37;;
9117;SDS011;4594;50.994;7.126;2023-12-07T03:37:27;18.50;;;12.83;;
9117;SDS011;4594;50.994;7.126;2023-12-07T03:39:53;19.60;;;12.80;;
9117;SDS011;4594;50.994;7.126;2023-12-07T03:42:18;19.93;;;12.87;;
9117;SDS011;4594;50.994;7.126;2023-12-07T03:44:44;22.17;;;13.43;;
9117;SDS011;4594;50.994;7.126;2023-12-07T03:47:10;24.03;;;14.50;;
9117;SDS011;4594;50.994;7.126;2023-12-07T03:49:35;17.00;;;11.87;;
9117;SDS011;4594;50.994;7.126;2023-12-07T03:52:03;19.53;;;13.97;;
9117;SDS011;4594;50.994;7.126;2023-12-07T03:54:29;21.17;;;13.00;;
9117;SDS011;4594;50.994;7.126;2023-12-07T03:56:54;22.53;;;13.80;;
9117;SDS011;4594;50.994;7.126;2023-12-07T03:59:20;22.13;;;14.13;;
9117;SDS011;4594;50.994;7.126;2023-12-07T04:01:46;21.27;;;13.57;;
9117;SDS011;4594;50.994;7.126;2023-12-07T04:04:11;22.33;;;13.83;;
9117;SDS011;4594;50.994;7.126;2023-12-07T04:06:37;18.83;;;13.57;;
9117;SDS011;4594;50.994;7.126;2023-12-07T04:09:03;20.57;;;12.63;;
9117;SDS011;4594;50.994;7.126;2023-12-07T04:11:29;19.93;;;12.70;;
9117;SDS011;4594;50.994;7.126;2023-12-07T04:13:55;24.47;;;13.63;;
9117;SDS011;4594;50.994;7.126;2023-12-07T04:16:20;21.20;;;13.30;;
9117;SDS011;4594;50.994;7.126;2023-12-07T04:18:46;22.70;;;13.67;;
9117;SDS011;4594;50.994;7.126;2023-12-07T04:21:12;25.67;;;16.23;;
9117;SDS011;4594;50.994;7.126;2023-12-07T04:23:38;25.37;;;14.20;;
9117;SDS011;4594;50.994;7.126;2023-12-07T04:26:03;20.57;;;14.30;;
9117;SDS011;4594;50.994;7.126;2023-12-07T04:28:29;22.03;;;13.83;;
9117;SDS011;4594;50.994;7.126;2023-12-07T04:30:55;23.10;;;14.57;;
9117;SDS011;4594;50.994;7.126;2023-12-07T04:33:21;25.80;;;15.30;;
9117;SDS011;4594;50.994;7.126;2023-12-07T04:35:46;25.07;;;15.23;;
9117;SDS011;4594;50.994;7.126;2023-12-07T04:38:12;19.87;;;14.07;;
9117;SDS011;4594;50.994;7.126;2023-12-07T04:40:38;20.53;;;13.77;;
9117;SDS011;4594;50.994;7.126;2023-12-07T04:43:03;22.17;;;13.37;;
9117;SDS011;4594;50.994;7.126;2023-12-07T04:45:29;23.03;;;14.40;;
9117;SDS011;4594;50.994;7.126;2023-12-07T04:47:55;19.93;;;12.93;;
9117;SDS011;4594;50.994;7.126;2023-12-07T04:50:22;22.10;;;14.07;;
9117;SDS011;4594;50.994;7.126;2023-12-07T04:52:48;21.20;;;13.33;;
9117;SDS011;4594;50.994;7.126;2023-12-07T04:55:14;23.03;;;14.40;;
9117;SDS011;4594;50.994;7.126;2023-12-07T04:57:41;20.73;;;13.77;;
9117;SDS011;4594;50.994;7.126;2023-12-07T05:00:06;21.60;;;14.83;;
9117;SDS011;4594;50.994;7.126;2023-12-07T05:02:35;20.00;;;13.20;;
9117;SDS011;4594;50.994;7.126;2023-12-07T05:05:03;20.33;;;12.93;;
9117;SDS011;4594;50.994;7.126;2023-12-07T05:07:30;21.87;;;13.50;;
9117;SDS011;4594;50.994;7.126;2023-12-07T05:09:55;22.00;;;13.33;;
9117;SDS011;4594;50.994;7.126;2023-12-07T05:12:21;20.70;;;12.73;;
9117;SDS011;4594;50.994;7.126;2023-12-07T05:14:46;21.17;;;12.57;;
9117;SDS011;4594;50.994;7.126;2023-12-07T05:17:12;18.07;;;13.53;;
9117;SDS011;4594;50.994;7.126;2023-12-07T05:19:38;21.40;;;14.43;;
9117;SDS011;4594;50.994;7.126;2023-12-07T05:22:04;20.53;;;13.40;;
9117;SDS011;4594;50.994;7.126;2023-12-07T05:24:29;21.50;;;13.10;;
9117;SDS011;4594;50.994;7.126;2023-12-07T05:26:57;21.87;;;13.77;;
9117;SDS011;4594;50.994;7.126;2023-12-07T05:29:23;20.63;;;13.20;;
9117;SDS011;4594;50.994;7.126;2023-12-07T05:31:49;20.17;;;12.70;;
9117;SDS011;4594;50.994;7.126;2023-12-07T05:34:15;20.87;;;12.07;;
9117;SDS011;4594;50.994;7.126;2023-12-07T05:36:42;24.20;;;14.23;;
9117;SDS011;4594;50.994;7.126;2023-12-07T05:39:08;20.07;;;13.13;;
9117;SDS011;4594;50.994;7.126;2023-12-07T05:41:34;19.90;;;12.70;;
9117;SDS011;4594;50.994;7.126;2023-12-07T05:43:59;23.40;;;14.10;;
9117;SDS011;4594;50.994;7.126;2023-12-07T05:46:25;21.33;;;12.73;;
9117;SDS011;4594;50.994;7.126;2023-12-07T05:48:51;20.00;;;12.77;;
9117;SDS011;4594;50.994;7.126;2023-12-07T05:51:17;18.77;;;12.50;;
9117;SDS011;4594;50.994;7.126;2023-12-07T05:53:45;18.97;;;11.97;;
9117;SDS011;4594;50.994;7.126;2023-12-07T05:56:11;17.67;;;11.97;;
9117;SDS011;4594;50.994;7.126;2023-12-07T05:58:37;19.07;;;12.80;;
9117;SDS011;4594;50.994;7.126;2023-12-07T06:01:03;20.53;;;12.83;;
9117;SDS011;4594;50.994;7.126;2023-12-07T06:03:29;18.67;;;12.17;;
9117;SDS011;4594;50.994;7.126;2023-12-07T06:05:54;19.63;;;12.43;;
9117;SDS011;4594;50.994;7.126;2023-12-07T06:08:21;17.23;;;11.80;;
9117;SDS011;4594;50.994;7.126;2023-12-07T06:10:47;19.20;;;12.70;;
9117;SDS011;4594;50.994;7.126;2023-12-07T06:13:13;20.50;;;12.43;;
9117;SDS011;4594;50.994;7.126;2023-12-07T06:15:39;19.23;;;12.87;;
9117;SDS011;4594;50.994;7.126;2023-12-07T06:18:05;18.00;;;11.77;;
9117;SDS011;4594;50.994;7.126;2023-12-07T06:20:32;20.93;;;11.93;;
9117;SDS011;4594;50.994;7.126;2023-12-07T06:22:57;19.90;;;12.33;;
9117;SDS011;4594;50.994;7.126;2023-12-07T06:25:23;20.50;;;12.77;;
9117;SDS011;4594;50.994;7.126;2023-12-07T06:27:49;16.87;;;11.53;;
9117;SDS011;4594;50.994;7.126;2023-12-07T06:30:15;19.17;;;12.50;;
9117;SDS011;4594;50.994;7.126;2023-12-07T06:32:41;16.60;;;11.17;;
9117;SDS011;4594;50.994;7.126;2023-12-07T06:35:07;14.13;;;10.87;;
9117;SDS011;4594;50.994;7.126;2023-12-07T06:37:33;18.87;;;11.67;;
9117;SDS011;4594;50.994;7.126;2023-12-07T06:39:59;16.03;;;11.47;;
9117;SDS011;4594;50.994;7.126;2023-12-07T06:42:25;16.77;;;11.03;;
9117;SDS011;4594;50.994;7.126;2023-12-07T06:44:52;19.33;;;10.90;;
9117;SDS011;4594;50.994;7.126;2023-12-07T06:47:17;15.10;;;10.83;;
9117;SDS011;4594;50.994;7.126;2023-12-07T06:49:43;12.57;;;9.47;;
9117;SDS011;4594;50.994;7.126;2023-12-07T06:52:10;16.53;;;10.10;;
9117;SDS011;4594;50.994;7.126;2023-12-07T06:54:37;17.47;;;11.47;;
9117;SDS011;4594;50.994;7.126;2023-12-07T06:57:06;16.97;;;10.20;;
9117;SDS011;4594;50.994;7.126;2023-12-07T06:59:32;14.63;;;10.57;;
9117;SDS011;4594;50.994;7.126;2023-12-07T07:01:58;15.87;;;10.27;;
9117;SDS011;4594;50.994;7.126;2023-12-07T07:04:24;18.63;;;10.20;;
9117;SDS011;4594;50.994;7.126;2023-12-07T07:06:50;13.23;;;9.77;;
9117;SDS011;4594;50.994;7.126;2023-12-07T07:09:16;16.57;;;10.73;;
9117;SDS011;4594;50.994;7.126;2023-12-07T07:11:46;13.90;;;10.13;;
9117;SDS011;4594;50.994;7.126;2023-12-07T07:14:15;16.30;;;10.30;;
9117;SDS011;4594;50.994;7.126;2023-12-07T07:16:42;15.83;;;10.77;;
9117;SDS011;4594;50.994;7.126;2023-12-07T07:19:08;14.90;;;10.33;;
9117;SDS011;4594;50.994;7.126;2023-12-07T07:21:35;16.93;;;10.93;;
9117;SDS011;4594;50.994;7.126;2023-12-07T07:24:01;12.27;;;9.93;;
9117;SDS011;4594;50.994;7.126;2023-12-07T07:26:27;14.70;;;10.93;;
9117;SDS011;4594;50.994;7.126;2023-12-07T07:28:52;15.90;;;9.90;;
9117;SDS011;4594;50.994;7.126;2023-12-07T07:31:18;15.03;;;10.03;;
9117;SDS011;4594;50.994;7.126;2023-12-07T07:33:45;12.50;;;9.57;;
9117;SDS011;4594;50.994;7.126;2023-12-07T07:36:12;14.40;;;9.57;;
9117;SDS011;4594;50.994;7.126;2023-12-07T07:38:42;14.03;;;9.50;;
9117;SDS011;4594;50.994;7.126;2023-12-07T07:41:09;12.90;;;9.60;;
9117;SDS011;4594;50.994;7.126;2023-12-07T07:43:36;16.13;;;9.40;;
9117;SDS011;4594;50.994;7.126;2023-12-07T07:46:03;13.37;;;9.90;;
9117;SDS011;4594;50.994;7.126;2023-12-07T07:48:29;12.10;;;9.47;;
9117;SDS011;4594;50.994;7.126;2023-12-07T07:50:55;12.13;;;9.17;;
9117;SDS011;4594;50.994;7.126;2023-12-07T07:53:20;13.27;;;10.13;;
9117;SDS011;4594;50.994;7.126;2023-12-07T07:55:46;15.33;;;9.80;;
9117;SDS011;4594;50.994;7.126;2023-12-07T07:58:12;12.90;;;9.73;;
9117;SDS011;4594;50.994;7.126;2023-12-07T08:00:37;16.87;;;11.00;;
9117;SDS011;4594;50.994;7.126;2023-12-07T08:03:03;15.47;;;10.90;;
9117;SDS011;4594;50.994;7.126;2023-12-07T08:05:29;17.20;;;10.97;;
9117;SDS011;4594;50.994;7.126;2023-12-07T08:07:54;17.87;;;10.50;;
9117;SDS011;4594;50.994;7.126;2023-12-07T08:10:20;16.27;;;11.30;;
9117;SDS011;4594;50.994;7.126;2023-12-07T08:12:46;15.50;;;10.80;;
9117;SDS011;4594;50.994;7.126;2023-12-07T08:15:11;17.33;;;10.67;;
9117;SDS011;4594;50.994;7.126;2023-12-07T08:17:40;15.37;;;11.13;;
9117;SDS011;4594;50.994;7.126;2023-12-07T08:20:07;23.27;;;12.33;;
9117;SDS011;4594;50.994;7.126;2023-12-07T08:22:35;14.40;;;10.73;;
9117;SDS011;4594;50.994;7.126;2023-12-07T08:25:06;22.63;;;13.43;;
9117;SDS011;4594;50.994;7.126;2023-12-07T08:27:34;18.73;;;10.97;;
9117;SDS011;4594;50.994;7.126;2023-12-07T08:30:02;14.33;;;9.97;;
9117;SDS011;4594;50.994;7.126;2023-12-07T08:32:28;11.83;;;9.40;;
9117;SDS011;4594;50.994;7.126;2023-12-07T08:34:54;12.23;;;9.77;;
9117;SDS011;4594;50.994;7.126;2023-12-07T08:37:20;13.60;;;10.67;;
9117;SDS011;4594;50.994;7.126;2023-12-07T08:39:46;13.50;;;10.33;;
9117;SDS011;4594;50.994;7.126;2023-12-07T08:42:11;13.80;;;11.07;;
9117;SDS011;4594;50.994;7.126;2023-12-07T08:44:37;19.23;;;13.43;;
9117;SDS011;4594;50.994;7.126;2023-12-07T08:47:03;16.63;;;11.37;;
9117;SDS011;4594;50.994;7.126;2023-12-07T08:49:30;18.13;;;11.80;;
9117;SDS011;4594;50.994;7.126;2023-12-07T08:51:56;15.10;;;11.00;;
9117;SDS011;4594;50.994;7.126;2023-12-07T08:54:22;16.90;;;11.37;;
9117;SDS011;4594;50.994;7.126;2023-12-07T08:56:49;17.90;;;11.47;;
9117;SDS011;4594;50.994;7.126;2023-12-07T08:59:14;14.47;;;10.17;;
9117;SDS011;4594;50.994;7.126;2023-12-07T09:01:40;17.80;;;12.30;;
9117;SDS011;4594;50.994;7.126;2023-12-07T09:04:05;13.97;;;10.73;;
9117;SDS011;4594;50.994;7.126;2023-12-07T09:06:31;15.67;;;11.20;;
9117;SDS011;4594;50.994;7.126;2023-12-07T09:08:57;14.87;;;10.87;;
9117;SDS011;4594;50.994;7.126;2023-12-07T09:11:23;13.23;;;10.57;;
9117;SDS011;4594;50.994;7.126;2023-12-07T09:13:49;14.13;;;10.73;;
9117;SDS011;4594;50.994;7.126;2023-12-07T09:16:15;14.17;;;9.77;;
9117;SDS011;4594;50.994;7.126;2023-12-07T09:18:41;13.47;;;10.30;;
9117;SDS011;4594;50.994;7.126;2023-12-07T09:21:10;15.07;;;10.80;;
9117;SDS011;4594;50.994;7.126;2023-12-07T09:23:35;16.30;;;9.97;;
9117;SDS011;4594;50.994;7.126;2023-12-07T09:26:02;13.43;;;10.50;;
9117;SDS011;4594;50.994;7.126;2023-12-07T09:28:28;13.40;;;10.43;;
9117;SDS011;4594;50.994;7.126;2023-12-07T09:30:54;13.10;;;9.70;;
9117;SDS011;4594;50.994;7.126;2023-12-07T09:33:20;15.17;;;10.57;;
9117;SDS011;4594;50.994;7.126;2023-12-07T09:35:46;15.87;;;10.80;;
9117;SDS011;4594;50.994;7.126;2023-12-07T09:38:12;13.90;;;10.80;;
9117;SDS011;4594;50.994;7.126;2023-12-07T09:40:37;16.33;;;10.73;;
9117;SDS011;4594;50.994;7.126;2023-12-07T09:43:03;13.57;;;10.63;;
9117;SDS011;4594;50.994;7.126;2023-12-07T09:45:29;13.33;;;10.07;;
9117;SDS011;4594;50.994;7.126;2023-12-07T09:47:55;13.93;;;10.43;;
9117;SDS011;4594;50.994;7.126;2023-12-07T09:50:21;15.83;;;10.97;;
9117;SDS011;4594;50.994;7.126;2023-12-07T09:52:53;15.87;;;10.77;;
9117;SDS011;4594;50.994;7.126;2023-12-07T09:55:22;14.53;;;10.03;;
9117;SDS011;4594;50.994;7.126;2023-12-07T09:57:49;14.47;;;10.50;;
9117;SDS011;4594;50.994;7.126;2023-12-07T10:00:15;13.30;;;9.90;;
9117;SDS011;4594;50.994;7.126;2023-12-07T10:02:43;16.17;;;10.60;;
9117;SDS011;4594;50.994;7.126;2023-12-07T10:05:11;15.97;;;10.50;;
9117;SDS011;4594;50.994;7.126;2023-12-07T10:07:41;15.13;;;10.07;;
9117;SDS011;4594;50.994;7.126;2023-12-07T10:10:12;16.63;;;11.37;;
9117;SDS011;4594;50.994;7.126;2023-12-07T10:13:01;16.07;;;10.00;;
9117;SDS011;4594;50.994;7.126;2023-12-07T10:15:26;15.70;;;10.63;;
9117;SDS011;4594;50.994;7.126;2023-12-07T10:17:56;15.10;;;10.47;;
9117;SDS011;4594;50.994;7.126;2023-12-07T10:20:25;13.83;;;10.30;;
9117;SDS011;4594;50.994;7.126;2023-12-07T10:23:02;14.53;;;10.40;;
9117;SDS011;4594;50.994;7.126;2023-12-07T10:25:35;12.83;;;10.17;;
9117;SDS011;4594;50.994;7.126;2023-12-07T10:28:04;13.03;;;9.77;;
9117;SDS011;4594;50.994;7.126;2023-12-07T10:30:32;13.10;;;10.10;;
9117;SDS011;4594;50.994;7.126;2023-12-07T10:32:59;17.27;;;10.23;;
9117;SDS011;4594;50.994;7.126;2023-12-07T10:35:29;14.57;;;10.10;;
9117;SDS011;4594;50.994;7.126;2023-12-07T10:37:54;14.57;;;9.50;;
9117;SDS011;4594;50.994;7.126;2023-12-07T10:40:20;13.57;;;10.13;;
9117;SDS011;4594;50.994;7.126;2023-12-07T10:42:47;12.47;;;9.77;;
9117;SDS011;4594;50.994;7.126;2023-12-07T10:45:15;14.73;;;9.73;;
9117;SDS011;4594;50.994;7.126;2023-12-07T10:47:43;16.40;;;10.47;;
9117;SDS011;4594;50.994;7.126;2023-12-07T10:50:09;13.70;;;10.33;;
9117;SDS011;4594;50.994;7.126;2023-12-07T10:53:01;13.07;;;9.60;;
9117;SDS011;4594;50.994;7.126;2023-12-07T10:55:52;15.80;;;10.83;;
9117;SDS011;4594;50.994;7.126;2023-12-07T10:58:22;14.40;;;10.63;;
9117;SDS011;4594;50.994;7.126;2023-12-07T11:00:50;17.20;;;10.73;;
9117;SDS011;4594;50.994;7.126;2023-12-07T11:03:18;17.07;;;10.00;;
9117;SDS011;4594;50.994;7.126;2023-12-07T11:05:45;14.53;;;10.67;;
9117;SDS011;4594;50.994;7.126;2023-12-07T11:08:18;14.47;;;9.60;;
9117;SDS011;4594;50.994;7.126;2023-12-07T11:13:44;15.23;;;9.87;;
9117;SDS011;4594;50.994;7.126;2023-12-07T11:16:43;12.83;;;9.77;;
9117;SDS011;4594;50.994;7.126;2023-12-07T11:21:55;14.27;;;9.47;;
9117;SDS011;4594;50.994;7.126;2023-12-07T11:24:33;12.40;;;9.30;;
9117;SDS011;4594;50.994;7.126;2023-12-07T11:26:59;13.87;;;9.27;;
9117;SDS011;4594;50.994;7.126;2023-12-07T11:29:25;15.47;;;9.37;;
9117;SDS011;4594;50.994;7.126;2023-12-07T11:31:58;15.10;;;9.80;;
9117;SDS011;4594;50.994;7.126;2023-12-07T11:34:36;11.47;;;9.23;;
9117;SDS011;4594;50.994;7.126;2023-12-07T11:37:07;11.33;;;9.00;;
9117;SDS011;4594;50.994;7.126;2023-12-07T11:39:41;13.50;;;10.07;;
9117;SDS011;4594;50.994;7.126;2023-12-07T11:42:10;13.70;;;9.13;;
9117;SDS011;4594;50.994;7.126;2023-12-07T11:44:43;13.83;;;9.97;;
9117;SDS011;4594;50.994;7.126;2023-12-07T11:47:17;11.50;;;9.07;;
9117;SDS011;4594;50.994;7.126;2023-12-07T11:49:46;12.77;;;9.47;;
9117;SDS011;4594;50.994;7.126;2023-12-07T11:52:13;13.97;;;9.53;;
9117;SDS011;4594;50.994;7.126;2023-12-07T11:54:48;14.80;;;10.50;;
9117;SDS011;4594;50.994;7.126;2023-12-07T11:57:15;13.43;;;9.80;;
9117;SDS011;4594;50.994;7.126;2023-12-07T11:59:45;12.70;;;9.77;;
9117;SDS011;4594;50.994;7.126;2023-12-07T12:02:14;12.83;;;8.80;;
9117;SDS011;4594;50.994;7.126;2023-12-07T12:04:40;15.13;;;9.40;;
9117;SDS011;4594;50.994;7.126;2023-12-07T12:07:06;13.33;;;9.77;;
9117;SDS011;4594;50.994;7.126;2023-12-07T12:09:33;14.27;;;8.93;;
9117;SDS011;4594;50.994;7.126;2023-12-07T12:11:59;11.10;;;7.97;;
9117;SDS011;4594;50.994;7.126;2023-12-07T12:14:26;12.43;;;8.80;;
9117;SDS011;4594;50.994;7.126;2023-12-07T12:16:55;15.00;;;9.37;;
9117;SDS011;4594;50.994;7.126;2023-12-07T12:19:22;11.23;;;8.27;;
9117;SDS011;4594;50.994;7.126;2023-12-07T12:21:51;10.47;;;8.40;;
9117;SDS011;4594;50.994;7.126;2023-12-07T12:24:16;12.40;;;8.93;;
9117;SDS011;4594;50.994;7.126;2023-12-07T12:26:42;12.97;;;8.57;;
9117;SDS011;4594;50.994;7.126;2023-12-07T12:29:09;16.23;;;8.80;;
9117;SDS011;4594;50.994;7.126;2023-12-07T12:31:36;11.23;;;8.87;;
9117;SDS011;4594;50.994;7.126;2023-12-07T12:34:05;11.57;;;9.20;;
9117;SDS011;4594;50.994;7.126;2023-12-07T12:36:33;13.13;;;8.47;;
9117;SDS011;4594;50.994;7.126;2023-12-07T12:38:59;13.00;;;9.23;;
9117;SDS011;4594;50.994;7.126;2023-12-07T12:41:27;12.50;;;9.03;;
9117;SDS011;4594;50.994;7.126;2023-12-07T12:43:55;8.67;;;7.70;;
9117;SDS011;4594;50.994;7.126;2023-12-07T12:46:22;11.20;;;8.30;;
9117;SDS011;4594;50.994;7.126;2023-12-07T12:48:52;14.70;;;8.63;;
9117;SDS011;4594;50.994;7.126;2023-12-07T12:51:26;8.80;;;7.77;;
9117;SDS011;4594;50.994;7.126;2023-12-07T12:53:58;12.77;;;8.17;;
9117;SDS011;4594;50.994;7.126;2023-12-07T12:56:25;10.77;;;8.47;;
9117;SDS011;4594;50.994;7.126;2023-12-07T12:58:53;9.57;;;7.90;;
9117;SDS011;4594;50.994;7.126;2023-12-07T13:01:21;9.07;;;7.60;;
9117;SDS011;4594;50.994;7.126;2023-12-07T13:03:47;11.47;;;7.70;;
9117;SDS011;4594;50.994;7.126;2023-12-07T13:06:16;11.40;;;8.30;;
9117;SDS011;4594;50.994;7.126;2023-12-07T13:08:43;9.57;;;8.03;;
9117;SDS011;4594;50.994;7.126;2023-12-07T13:11:17;9.00;;;7.43;;
9117;SDS011;4594;50.994;7.126;2023-12-07T13:13:44;8.00;;;7.20;;
9117;SDS011;4594;50.994;7.126;2023-12-07T13:16:18;9.53;;;7.57;;
9117;SDS011;4594;50.994;7.126;2023-12-07T13:18:45;11.27;;;6.93;;
9117;SDS011;4594;50.994;7.126;2023-12-07T13:21:11;9.97;;;7.37;;
9117;SDS011;4594;50.994;7.126;2023-12-07T13:23:37;10.93;;;7.67;;
9117;SDS011;4594;50.994;7.126;2023-12-07T13:26:02;8.57;;;7.40;;
9117;SDS011;4594;50.994;7.126;2023-12-07T13:28:29;8.67;;;7.13;;
9117;SDS011;4594;50.994;7.126;2023-12-07T13:30:55;8.03;;;7.23;;
9117;SDS011;4594;50.994;7.126;2023-12-07T13:33:20;8.50;;;7.50;;
9117;SDS011;4594;50.994;7.126;2023-12-07T13:35:48;8.43;;;7.03;;
9117;SDS011;4594;50.994;7.126;2023-12-07T13:38:14;8.50;;;6.97;;
9117;SDS011;4594;50.994;7.126;2023-12-07T13:40:40;14.13;;;7.13;;
9117;SDS011;4594;50.994;7.126;2023-12-07T13:43:06;9.57;;;7.20;;
9117;SDS011;4594;50.994;7.126;2023-12-07T13:45:31;11.30;;;7.57;;
9117;SDS011;4594;50.994;7.126;2023-12-07T13:47:57;9.47;;;7.30;;
9117;SDS011;4594;50.994;7.126;2023-12-07T13:50:23;8.13;;;6.97;;
9117;SDS011;4594;50.994;7.126;2023-12-07T13:52:49;8.83;;;7.40;;
9117;SDS011;4594;50.994;7.126;2023-12-07T13:55:15;8.67;;;6.53;;
9117;SDS011;4594;50.994;7.126;2023-12-07T13:57:40;8.83;;;6.83;;
9117;SDS011;4594;50.994;7.126;2023-12-07T14:00:06;6.20;;;5.60;;
9117;SDS011;4594;50.994;7.126;2023-12-07T14:02:37;8.97;;;7.37;;
9117;SDS011;4594;50.994;7.126;2023-12-07T14:05:03;7.90;;;6.80;;
9117;SDS011;4594;50.994;7.126;2023-12-07T14:07:30;11.50;;;7.60;;
9117;SDS011;4594;50.994;7.126;2023-12-07T14:09:55;6.97;;;6.27;;
9117;SDS011;4594;50.994;7.126;2023-12-07T14:12:21;8.23;;;6.60;;
9117;SDS011;4594;50.994;7.126;2023-12-07T14:14:48;6.97;;;6.03;;
9117;SDS011;4594;50.994;7.126;2023-12-07T14:17:14;6.03;;;5.47;;
9117;SDS011;4594;50.994;7.126;2023-12-07T14:19:42;8.00;;;6.07;;
9117;SDS011;4594;50.994;7.126;2023-12-07T14:22:08;8.43;;;6.73;;
9117;SDS011;4594;50.994;7.126;2023-12-07T14:24:35;7.60;;;6.40;;
9117;SDS011;4594;50.994;7.126;2023-12-07T14:27:02;9.23;;;7.00;;
9117;SDS011;4594;50.994;7.126;2023-12-07T14:29:30;8.57;;;7.43;;
9117;SDS011;4594;50.994;7.126;2023-12-07T14:31:57;8.03;;;6.63;;
9117;SDS011;4594;50.994;7.126;2023-12-07T14:34:23;9.40;;;6.70;;
9117;SDS011;4594;50.994;7.126;2023-12-07T14:36:51;7.67;;;6.73;;
9117;SDS011;4594;50.994;7.126;2023-12-07T14:39:18;8.67;;;6.30;;
9117;SDS011;4594;50.994;7.126;2023-12-07T14:41:48;8.10;;;7.30;;
9117;SDS011;4594;50.994;7.126;2023-12-07T14:44:16;9.37;;;7.27;;
9117;SDS011;4594;50.994;7.126;2023-12-07T14:46:46;6.83;;;6.13;;
9117;SDS011;4594;50.994;7.126;2023-12-07T14:49:13;9.10;;;6.53;;
9117;SDS011;4594;50.994;7.126;2023-12-07T14:51:46;7.37;;;6.43;;
9117;SDS011;4594;50.994;7.126;2023-12-07T14:54:13;7.60;;;6.80;;
9117;SDS011;4594;50.994;7.126;2023-12-07T14:56:39;12.50;;;7.17;;
9117;SDS011;4594;50.994;7.126;2023-12-07T14:59:05;9.43;;;7.10;;
9117;SDS011;4594;50.994;7.126;2023-12-07T15:01:32;8.20;;;7.33;;
9117;SDS011;4594;50.994;7.126;2023-12-07T15:03:58;11.70;;;8.50;;